This is the latest recevied weather packets stored in our database for station/object W1RCY. If no packets are shown the sender has not sent any weather packets the latest 1 day(s).
| Time | Temp. | Humidity | Pressure | Rain* | Wind** | Luminosity | Snow |
|---|---|---|---|---|---|---|---|
| 1778030298 | 17.22° C | 82% | 1007.1 hPa | 0 mm | - | 0 W/m² | - |
| 1778029994 | 17.22° C | 81% | 1007 hPa | 0 mm | - | 0 W/m² | - |
| 1778029692 | 17.78° C | 80% | 1007.2 hPa | 0 mm | - | 0 W/m² | - |
| 1778028783 | 18.89° C | 72% | 1007 hPa | 0 mm | - | 0 W/m² | - |
| 1778028479 | 18.89° C | 72% | 1006.8 hPa | 0 mm | - | 0 W/m² | - |
| 1778028177 | 18.89° C | 71% | 1006.7 hPa | 0 mm | - | 0 W/m² | - |
| 1778027872 | 18.89° C | 70% | 1006.7 hPa | 0 mm | - | 0 W/m² | - |
| 1778027569 | 18.89° C | 70% | 1006.7 hPa | 0 mm | - | 0 W/m² | - |
| 1778027265 | 19.44° C | 70% | 1006.3 hPa | 0 mm | - | 0 W/m² | - |
| 1778026052 | 19.44° C | 71% | 1006 hPa | 0 mm | - | 0 W/m² | - |
| 1778024841 | 18.89° C | 72% | 1005.7 hPa | 0 mm | - | 0 W/m² | - |
| 1778020291 | 21.11° C | 63% | 1004.4 hPa | 0 mm | - | 1 W/m² | - |
| 1778019077 | 25.56° C | 41% | 1002.9 hPa | 0 mm | - | 46 W/m² | - |
| 1778018170 | 26.11° C | 39% | 1002.6 hPa | 0 mm | - | 98 W/m² | - |
| 1778017868 | 26.11° C | 38% | 1002.6 hPa | 0 mm | - | 104 W/m² | - |
| 1778017566 | 26.11° C | 38% | 1002.5 hPa | 0 mm | - | 101 W/m² | - |
| 1778015140 | 27.22° C | 36% | 1002.1 hPa | 0 mm | - | 121 W/m² | - |
| 1778013930 | 27.78° C | 35% | 1001.9 hPa | 0 mm | - | 348 W/m² | - |
| 1778013627 | 27.22° C | 35% | 1002.1 hPa | 0 mm | - | 425 W/m² | - |
| 1778013021 | 27.22° C | 36% | 1002.2 hPa | 0 mm | - | 493 W/m² | - |
* Rain latest hour (hover to see other rain measurements)
** Current wind speed in m/s (hover to see current wind gust speed)